createdAt,value
2023-02-22T00:00:03.941Z,80.87
2023-02-22T00:02:35.358Z,80.70
2023-02-22T00:05:06.968Z,80.77
2023-02-22T00:07:38.395Z,88.28
2023-02-22T00:10:10.147Z,83.83
2023-02-22T00:12:43.093Z,90.70
2023-02-22T00:15:16.150Z,87.60
2023-02-22T00:17:47.700Z,87.53
2023-02-22T00:20:19.240Z,88.82
2023-02-22T00:22:50.949Z,84.13
2023-02-22T00:25:24.642Z,83.50
2023-02-22T00:27:56.110Z,86.75
2023-02-22T00:30:30.018Z,90.22
2023-02-22T00:33:02.147Z,90.35
2023-02-22T00:35:33.580Z,85.22
2023-02-22T00:38:05.539Z,89.30
2023-02-22T00:40:37.008Z,82.60
2023-02-22T00:43:08.654Z,80.57
2023-02-22T00:45:41.294Z,81.35
2023-02-22T00:48:12.782Z,84.20
2023-02-22T00:50:44.222Z,80.25
2023-02-22T00:53:16.333Z,75.97
2023-02-22T00:55:47.760Z,71.25
2023-02-22T00:58:19.280Z,76.72
2023-02-22T01:00:50.771Z,76.03
2023-02-22T01:03:22.241Z,71.05
2023-02-22T01:05:53.683Z,75.47
2023-02-22T01:08:25.206Z,73.00
2023-02-22T01:10:56.655Z,78.53
2023-02-22T01:13:28.173Z,77.80
2023-02-22T01:15:59.627Z,67.97
2023-02-22T01:18:31.085Z,73.05
2023-02-22T01:21:03.865Z,79.00
2023-02-22T01:23:35.346Z,75.30
2023-02-22T01:26:06.795Z,75.95
2023-02-22T01:28:39.294Z,74.18
2023-02-22T01:31:10.837Z,78.28
2023-02-22T01:33:42.383Z,74.85
2023-02-22T01:36:13.883Z,79.90
2023-02-22T01:38:45.700Z,78.20
2023-02-22T01:41:17.415Z,74.72
2023-02-22T01:43:48.970Z,79.07
2023-02-22T01:46:25.944Z,75.28
2023-02-22T01:49:02.544Z,81.85
2023-02-22T01:51:39.196Z,73.63
2023-02-22T01:54:18.287Z,69.60
2023-02-22T01:57:08.169Z,67.53
2023-02-22T01:59:43.997Z,69.68
2023-02-22T02:02:17.295Z,65.80
2023-02-22T02:04:49.273Z,66.13
2023-02-22T02:07:23.640Z,70.23
2023-02-22T02:10:03.906Z,64.43
2023-02-22T02:12:36.331Z,69.43
2023-02-22T02:15:29.243Z,71.23
2023-02-22T02:18:04.824Z,79.57
2023-02-22T02:20:47.014Z,78.88
2023-02-22T02:23:40.396Z,80.15
2023-02-22T02:26:38.867Z,89.25
2023-02-22T02:29:26.952Z,88.78
2023-02-22T02:32:35.554Z,85.68
2023-02-22T02:35:28.325Z,89.47
2023-02-22T02:38:30.911Z,86.10
2023-02-22T02:41:39.797Z,84.77
2023-02-22T02:44:13.027Z,96.20
2023-02-22T02:46:56.387Z,89.43
2023-02-22T02:49:54.909Z,84.78
2023-02-22T02:52:29.127Z,87.28
2023-02-22T02:55:03.320Z,81.25
2023-02-22T02:57:34.764Z,85.90
2023-02-22T03:00:07.923Z,85.47
2023-02-22T03:03:13.192Z,88.10
2023-02-22T03:06:02.810Z,80.18
2023-02-22T03:09:06.471Z,88.78
2023-02-22T03:12:03.292Z,87.20
2023-02-22T03:14:42.480Z,84.68
2023-02-22T03:17:23.459Z,92.83
2023-02-22T03:20:04.232Z,90.10
2023-02-22T03:22:58.084Z,90.57
2023-02-22T03:25:43.290Z,95.88
2023-02-22T03:28:18.919Z,99.10
2023-02-22T03:31:00.946Z,93.30
2023-02-22T03:33:41.586Z,98.47
2023-02-22T03:36:32.155Z,92.65
2023-02-22T03:39:04.016Z,89.63
2023-02-22T03:41:37.954Z,98.67
2023-02-22T03:44:13.442Z,91.53
2023-02-22T03:46:48.685Z,96.60
2023-02-22T03:49:31.536Z,93.32
2023-02-22T03:52:04.940Z,97.57
2023-02-22T03:54:36.441Z,96.32
2023-02-22T03:57:17.618Z,96.60
2023-02-22T03:59:50.452Z,97.15
2023-02-22T04:02:21.906Z,99.00
2023-02-22T04:04:53.446Z,99.07
2023-02-22T04:07:24.910Z,102.00
2023-02-22T04:09:56.359Z,101.13
2023-02-22T04:12:27.856Z,100.45
2023-02-22T04:14:59.255Z,99.47
2023-02-22T04:17:30.695Z,98.53
2023-02-22T04:20:02.190Z,100.63
2023-02-22T04:22:33.725Z,84.97
2023-02-22T04:25:05.611Z,92.68
2023-02-22T04:27:37.263Z,90.82
2023-02-22T04:30:09.517Z,87.13
2023-02-22T04:32:40.980Z,87.03
2023-02-22T04:35:12.491Z,84.33
2023-02-22T04:37:43.921Z,80.95
2023-02-22T04:40:17.085Z,82.93
2023-02-22T04:42:48.545Z,82.65
2023-02-22T04:45:19.943Z,78.15
2023-02-22T04:47:51.393Z,82.43
2023-02-22T04:50:22.873Z,74.72
2023-02-22T04:52:55.688Z,70.35
2023-02-22T04:55:27.134Z,80.10
2023-02-22T04:57:58.626Z,69.28
2023-02-22T05:00:30.103Z,81.63
2023-02-22T05:03:01.579Z,80.45
2023-02-22T05:05:33.153Z,87.47
2023-02-22T05:08:04.845Z,75.35
2023-02-22T05:10:36.307Z,80.20
2023-02-22T05:13:07.756Z,73.57
2023-02-22T05:15:39.224Z,76.18
2023-02-22T05:18:10.676Z,79.67
2023-02-22T05:20:42.148Z,74.22
2023-02-22T05:23:13.573Z,76.27
2023-02-22T05:25:44.995Z,75.35
2023-02-22T05:28:16.878Z,77.88
2023-02-22T05:30:48.318Z,90.32
2023-02-22T05:33:19.848Z,79.63
2023-02-22T05:35:51.294Z,76.30
2023-02-22T05:38:22.872Z,71.05
2023-02-22T05:40:54.342Z,71.17
2023-02-22T05:43:25.786Z,79.00
2023-02-22T05:45:58.757Z,81.60
2023-02-22T05:48:30.469Z,77.90
2023-02-22T05:51:02.285Z,73.35
2023-02-22T05:53:33.751Z,78.30
2023-02-22T05:56:05.553Z,84.45
2023-02-22T05:58:37.404Z,86.78
2023-02-22T06:01:08.883Z,82.63
2023-02-22T06:03:40.340Z,100.57
2023-02-22T06:06:11.764Z,87.93
2023-02-22T06:08:43.713Z,78.75
2023-02-22T06:11:15.274Z,78.75
2023-02-22T06:13:51.589Z,74.07
2023-02-22T06:16:23.084Z,68.22
2023-02-22T06:18:54.598Z,76.03
2023-02-22T06:21:26.319Z,77.45
2023-02-22T06:23:57.749Z,77.20
2023-02-22T06:26:29.283Z,69.95
2023-02-22T06:29:00.727Z,64.55
2023-02-22T06:31:32.263Z,69.07
2023-02-22T06:34:04.339Z,68.25
2023-02-22T06:36:35.719Z,76.40
2023-02-22T06:39:07.183Z,65.63
2023-02-22T06:41:39.006Z,55.95
2023-02-22T06:44:11.170Z,68.28
2023-02-22T06:46:49.602Z,62.05
2023-02-22T06:49:21.029Z,72.22
2023-02-22T06:51:52.511Z,66.53
2023-02-22T06:54:24.089Z,66.30
2023-02-22T06:56:55.502Z,74.70
2023-02-22T06:59:26.945Z,78.13
2023-02-22T07:01:58.552Z,63.40
2023-02-22T07:04:30.332Z,61.33
2023-02-22T07:07:01.751Z,56.60
2023-02-22T07:09:33.225Z,67.32
2023-02-22T07:12:04.790Z,55.97
2023-02-22T07:14:36.235Z,52.95
2023-02-22T07:17:07.671Z,46.40
2023-02-22T07:19:39.128Z,53.08
2023-02-22T07:22:11.958Z,48.37
2023-02-22T07:24:43.603Z,45.50
2023-02-22T07:27:15.076Z,48.58
2023-02-22T07:29:46.453Z,44.95
2023-02-22T07:32:18.127Z,51.88
2023-02-22T07:34:49.637Z,43.08
2023-02-22T07:37:21.093Z,47.30
2023-02-22T07:39:52.588Z,44.25
2023-02-22T07:42:24.067Z,51.08
2023-02-22T07:44:55.535Z,44.83
2023-02-22T07:47:26.981Z,45.67
2023-02-22T07:49:58.423Z,50.30
2023-02-22T07:52:29.829Z,46.35
2023-02-22T07:55:01.341Z,49.45
2023-02-22T07:57:33.336Z,48.75
2023-02-22T08:00:05.282Z,48.88
2023-02-22T08:02:36.797Z,52.17
2023-02-22T08:05:08.704Z,43.85
2023-02-22T08:07:40.408Z,46.80
2023-02-22T08:10:13.817Z,42.40
2023-02-22T08:12:45.708Z,41.08
2023-02-22T08:15:20.921Z,42.10
2023-02-22T08:17:52.403Z,47.30
2023-02-22T08:20:24.603Z,43.42
2023-02-22T08:22:56.691Z,41.10
2023-02-22T08:25:29.480Z,39.03
2023-02-22T08:28:09.797Z,40.80
2023-02-22T08:30:41.666Z,42.05
2023-02-22T08:33:15.832Z,47.30
2023-02-22T08:35:49.164Z,45.90
2023-02-22T08:38:27.742Z,40.65
2023-02-22T08:40:59.308Z,42.83
2023-02-22T08:43:30.848Z,44.30
2023-02-22T08:46:02.296Z,42.87
2023-02-22T08:48:33.811Z,39.28
2023-02-22T08:51:05.466Z,35.80
2023-02-22T08:53:36.920Z,40.47
2023-02-22T08:56:08.366Z,44.00
2023-02-22T08:58:39.800Z,42.05
2023-02-22T09:01:12.101Z,37.17
2023-02-22T09:03:48.619Z,40.53
2023-02-22T09:06:20.171Z,37.33
2023-02-22T09:08:51.677Z,34.67
2023-02-22T09:11:23.205Z,33.10
2023-02-22T09:13:54.640Z,35.70
2023-02-22T09:16:26.068Z,33.37
2023-02-22T09:18:57.495Z,33.58
2023-02-22T09:21:28.928Z,36.78
2023-02-22T09:24:00.343Z,33.17
2023-02-22T09:26:31.761Z,33.15
2023-02-22T09:29:03.202Z,33.95
2023-02-22T09:31:37.128Z,32.53
2023-02-22T09:34:09.101Z,34.35
2023-02-22T09:36:41.518Z,32.63
2023-02-22T09:39:14.859Z,32.43
2023-02-22T09:42:13.135Z,33.58
2023-02-22T09:45:08.501Z,32.80
2023-02-22T09:47:49.640Z,32.47
2023-02-22T09:50:24.627Z,33.17
2023-02-22T09:53:30.290Z,32.60
2023-02-22T09:56:10.617Z,33.30
2023-02-22T09:58:46.382Z,34.25
2023-02-22T10:01:39.118Z,33.77
2023-02-22T10:04:22.193Z,37.45
2023-02-22T10:07:12.066Z,32.90
2023-02-22T10:09:45.173Z,42.10
2023-02-22T10:12:34.022Z,34.13
2023-02-22T10:15:24.861Z,33.17
2023-02-22T10:18:32.718Z,36.60
2023-02-22T10:21:28.752Z,33.25
2023-02-22T10:24:32.906Z,33.42
2023-02-22T10:27:07.498Z,32.00
2023-02-22T10:29:43.288Z,31.25
2023-02-22T10:32:20.191Z,34.53
2023-02-22T10:34:54.691Z,33.25
2023-02-22T10:37:30.051Z,31.02
2023-02-22T10:40:20.649Z,31.63
2023-02-22T10:42:52.140Z,28.52
2023-02-22T10:45:26.310Z,29.15
2023-02-22T10:48:00.961Z,26.13
2023-02-22T10:50:33.285Z,27.70
2023-02-22T10:53:04.698Z,29.17
2023-02-22T10:55:36.471Z,25.98
2023-02-22T10:58:08.840Z,26.20
2023-02-22T11:00:40.428Z,26.00
2023-02-22T11:03:21.973Z,25.67
2023-02-22T11:05:53.432Z,26.10
2023-02-22T11:08:29.484Z,25.73
2023-02-22T11:11:04.062Z,25.77
2023-02-22T11:13:40.121Z,24.52
2023-02-22T11:16:19.272Z,26.13
2023-02-22T11:18:51.030Z,25.70
2023-02-22T11:21:23.202Z,25.65
2023-02-22T11:24:07.209Z,25.83
2023-02-22T11:26:44.968Z,25.15
2023-02-22T11:29:22.802Z,23.80
2023-02-22T11:31:55.725Z,25.50
2023-02-22T11:34:36.687Z,25.23
2023-02-22T11:37:32.092Z,25.48
2023-02-22T11:40:13.731Z,25.30
2023-02-22T11:42:46.910Z,25.30
2023-02-22T11:45:22.656Z,26.20
2023-02-22T11:47:59.324Z,24.43
2023-02-22T11:50:33.441Z,27.27
2023-02-22T11:53:26.428Z,25.40
2023-02-22T11:56:35.650Z,24.65
2023-02-22T11:59:34.971Z,24.08
2023-02-22T12:02:56.383Z,24.73
2023-02-22T12:05:33.135Z,23.97
2023-02-22T12:08:19.667Z,24.33
2023-02-22T12:11:23.131Z,24.60
2023-02-22T12:14:29.313Z,24.33
2023-02-22T12:17:39.039Z,25.25
2023-02-22T12:20:30.587Z,25.20
2023-02-22T12:23:16.682Z,25.25
2023-02-22T12:26:01.572Z,25.33
2023-02-22T12:28:58.837Z,26.10
2023-02-22T12:31:36.571Z,25.02
2023-02-22T12:34:27.745Z,26.25
2023-02-22T12:37:40.304Z,26.10
2023-02-22T12:40:18.469Z,26.75
2023-02-22T12:42:56.230Z,26.45
2023-02-22T12:45:38.767Z,26.25
2023-02-22T12:48:15.929Z,26.65
2023-02-22T12:50:55.473Z,26.83
2023-02-22T12:53:39.949Z,29.02
2023-02-22T12:56:25.348Z,29.60
2023-02-22T12:59:25.924Z,28.95
2023-02-22T13:02:03.352Z,27.42
2023-02-22T13:04:34.816Z,29.63
2023-02-22T13:07:40.294Z,30.05
2023-02-22T13:10:37.566Z,29.13
2023-02-22T13:13:20.085Z,28.63
2023-02-22T13:16:19.326Z,30.05
2023-02-22T13:19:03.220Z,28.58
2023-02-22T13:21:55.483Z,29.75
2023-02-22T13:24:48.281Z,30.97
2023-02-22T13:27:26.862Z,32.38
2023-02-22T13:30:00.006Z,30.65
2023-02-22T13:32:47.465Z,31.90
2023-02-22T13:35:53.676Z,30.77
2023-02-22T13:38:49.677Z,30.15
2023-02-22T13:41:36.182Z,30.58
2023-02-22T13:44:13.336Z,30.60
2023-02-22T13:47:08.038Z,31.27
2023-02-22T13:50:04.448Z,31.13
2023-02-22T13:52:40.982Z,29.23
2023-02-22T13:55:24.431Z,29.27
2023-02-22T13:58:10.703Z,28.55
2023-02-22T14:00:55.364Z,28.48
2023-02-22T14:03:35.072Z,29.08
2023-02-22T14:06:30.845Z,29.38
2023-02-22T14:09:08.345Z,27.65
2023-02-22T14:11:41.437Z,27.90
2023-02-22T14:14:15.253Z,27.55
2023-02-22T14:17:20.160Z,28.05
2023-02-22T14:20:01.516Z,28.23
2023-02-22T14:22:33.141Z,27.67
2023-02-22T14:25:04.978Z,27.40
2023-02-22T14:27:41.100Z,27.35
2023-02-22T14:30:25.292Z,28.97
2023-02-22T14:32:56.865Z,29.00
2023-02-22T14:35:49.386Z,29.38
2023-02-22T14:38:21.762Z,29.47
2023-02-22T14:40:56.379Z,29.42
2023-02-22T14:43:28.074Z,29.33
2023-02-22T14:46:00.743Z,29.63
2023-02-22T14:48:36.212Z,29.05
2023-02-22T14:51:31.578Z,31.38
2023-02-22T14:54:21.190Z,31.00
2023-02-22T14:56:57.713Z,33.50
2023-02-22T14:59:32.140Z,33.87
2023-02-22T15:02:12.619Z,32.13
2023-02-22T15:04:51.206Z,32.67
2023-02-22T15:07:24.585Z,34.28
2023-02-22T15:10:21.100Z,35.28
2023-02-22T15:13:04.181Z,39.50
2023-02-22T15:15:44.268Z,41.38
2023-02-22T15:18:24.675Z,40.83
2023-02-22T15:21:03.258Z,41.83
2023-02-22T15:23:56.180Z,45.05
2023-02-22T15:26:51.978Z,48.38
2023-02-22T15:29:36.887Z,48.15
2023-02-22T15:32:32.953Z,51.08
2023-02-22T15:35:31.339Z,50.58
2023-02-22T15:38:26.889Z,52.88
2023-02-22T15:41:03.199Z,53.75
2023-02-22T15:43:34.822Z,59.80
2023-02-22T15:46:07.639Z,67.78
2023-02-22T15:48:39.132Z,69.17
2023-02-22T15:51:13.680Z,65.57
2023-02-22T15:53:47.780Z,65.13
2023-02-22T15:56:26.992Z,62.63
2023-02-22T15:59:07.670Z,64.57
2023-02-22T16:01:42.966Z,62.72
2023-02-22T16:04:21.403Z,56.28
2023-02-22T16:07:07.656Z,58.53
2023-02-22T16:09:39.101Z,56.88
2023-02-22T16:12:25.963Z,55.90
2023-02-22T16:15:00.047Z,62.75
2023-02-22T16:17:35.601Z,59.30
2023-02-22T16:20:12.899Z,64.30
2023-02-22T16:22:46.378Z,63.28
2023-02-22T16:25:17.791Z,58.22
2023-02-22T16:28:00.452Z,60.47
2023-02-22T16:30:34.975Z,58.28
2023-02-22T16:33:08.361Z,54.70
2023-02-22T16:35:40.453Z,58.33
2023-02-22T16:38:11.860Z,54.17
2023-02-22T16:40:49.271Z,52.63
2023-02-22T16:43:27.672Z,55.92
2023-02-22T16:46:00.724Z,54.15
2023-02-22T16:48:33.100Z,57.30
2023-02-22T16:51:35.004Z,54.08
2023-02-22T16:54:09.708Z,51.00
2023-02-22T16:56:41.336Z,51.77
2023-02-22T16:59:15.302Z,48.17
2023-02-22T17:01:46.915Z,44.30
2023-02-22T17:04:23.844Z,46.50
2023-02-22T17:06:55.250Z,51.80
2023-02-22T17:09:26.667Z,45.22
2023-02-22T17:11:58.199Z,45.75
2023-02-22T17:14:33.576Z,43.65
2023-02-22T17:17:05.057Z,45.55
2023-02-22T17:19:37.708Z,46.97
2023-02-22T17:22:21.472Z,49.83
2023-02-22T17:24:52.921Z,48.00
2023-02-22T17:27:24.356Z,49.07
2023-02-22T17:29:55.763Z,44.22
2023-02-22T17:32:27.271Z,48.00
2023-02-22T17:34:58.688Z,39.22
2023-02-22T17:37:30.148Z,48.42
2023-02-22T17:40:01.632Z,43.47
2023-02-22T17:42:33.096Z,44.55
2023-02-22T17:45:04.881Z,48.17
2023-02-22T17:47:36.393Z,46.53
2023-02-22T17:50:09.675Z,49.55
2023-02-22T17:52:42.088Z,50.75
2023-02-22T17:55:13.954Z,50.23
2023-02-22T17:57:45.703Z,50.53
2023-02-22T18:00:18.133Z,50.83
2023-02-22T18:02:51.498Z,55.13
2023-02-22T18:05:23.033Z,54.38
2023-02-22T18:07:54.475Z,53.40
2023-02-22T18:10:26.633Z,55.55
2023-02-22T18:12:58.129Z,54.05
2023-02-22T18:15:30.372Z,50.72
2023-02-22T18:18:04.032Z,53.80
2023-02-22T18:20:35.519Z,51.92
2023-02-22T18:23:11.356Z,55.17
2023-02-22T18:26:03.780Z,54.28
2023-02-22T18:28:35.755Z,48.47
2023-02-22T18:31:09.964Z,53.15
2023-02-22T18:33:43.313Z,53.83
2023-02-22T18:36:20.231Z,49.30
2023-02-22T18:38:53.628Z,50.60
2023-02-22T18:41:25.661Z,47.97
2023-02-22T18:43:57.467Z,50.08
2023-02-22T18:46:29.057Z,49.55
2023-02-22T18:49:00.508Z,49.65
2023-02-22T18:51:32.001Z,48.40
2023-02-22T18:54:03.581Z,49.50
2023-02-22T18:56:34.986Z,46.97
2023-02-22T18:59:07.716Z,49.03
2023-02-22T19:01:40.266Z,46.65
2023-02-22T19:04:11.770Z,52.63
2023-02-22T19:06:43.263Z,49.35
2023-02-22T19:09:14.694Z,51.33
2023-02-22T19:11:46.381Z,44.60
2023-02-22T19:14:18.239Z,48.80
2023-02-22T19:16:51.113Z,48.73
2023-02-22T19:19:24.836Z,47.42
2023-02-22T19:21:57.891Z,48.47
2023-02-22T19:24:29.325Z,48.08
2023-02-22T19:27:00.742Z,51.17
2023-02-22T19:29:32.196Z,50.03
2023-02-22T19:32:04.767Z,53.45
2023-02-22T19:34:36.264Z,55.95
2023-02-22T19:37:07.739Z,52.30
2023-02-22T19:39:39.324Z,54.88
2023-02-22T19:42:10.741Z,46.03
2023-02-22T19:44:42.162Z,54.15
2023-02-22T19:47:13.595Z,58.15
2023-02-22T19:49:45.050Z,55.38
2023-02-22T19:52:17.043Z,53.67
2023-02-22T19:54:48.507Z,52.20
2023-02-22T19:57:19.935Z,47.30
2023-02-22T19:59:51.390Z,44.17
2023-02-22T20:02:22.848Z,50.83
2023-02-22T20:04:54.384Z,46.83
2023-02-22T20:07:25.817Z,49.03
2023-02-22T20:09:57.235Z,54.50
2023-02-22T20:12:28.742Z,51.63
2023-02-22T20:15:00.202Z,44.63
2023-02-22T20:17:31.672Z,43.38
2023-02-22T20:20:03.260Z,51.88
2023-02-22T20:22:34.670Z,47.83
2023-02-22T20:25:06.238Z,45.60
2023-02-22T20:27:37.700Z,48.15
2023-02-22T20:30:10.195Z,44.78
2023-02-22T20:32:41.889Z,47.85
2023-02-22T20:35:13.409Z,40.90
2023-02-22T20:37:44.868Z,47.78
2023-02-22T20:40:16.445Z,47.13
2023-02-22T20:42:47.913Z,48.67
2023-02-22T20:45:19.369Z,58.10
2023-02-22T20:47:50.874Z,51.17
2023-02-22T20:50:22.309Z,49.15
2023-02-22T20:52:53.830Z,48.85
2023-02-22T20:55:25.749Z,53.05
2023-02-22T20:57:57.395Z,48.35
2023-02-22T21:00:28.998Z,53.80
2023-02-22T21:03:00.415Z,52.30
2023-02-22T21:05:33.427Z,55.22
2023-02-22T21:08:05.167Z,50.17
2023-02-22T21:10:47.070Z,54.10
2023-02-22T21:13:18.558Z,59.83
2023-02-22T21:15:50.817Z,44.80
2023-02-22T21:18:24.933Z,50.90
2023-02-22T21:20:56.487Z,48.55
2023-02-22T21:23:27.920Z,49.65
2023-02-22T21:25:59.352Z,44.63
2023-02-22T21:28:49.969Z,44.60
2023-02-22T21:31:24.731Z,50.73
2023-02-22T21:33:58.076Z,57.08
2023-02-22T21:36:29.866Z,52.03
2023-02-22T21:39:03.049Z,49.10
2023-02-22T21:41:34.595Z,51.17
2023-02-22T21:44:06.566Z,49.53
2023-02-22T21:46:38.063Z,49.03
2023-02-22T21:49:11.447Z,47.63
2023-02-22T21:51:43.978Z,50.15
2023-02-22T21:54:15.388Z,45.70
2023-02-22T21:56:47.410Z,54.92
2023-02-22T21:59:20.654Z,53.53
2023-02-22T22:01:55.067Z,49.45
2023-02-22T22:04:28.681Z,55.65
2023-02-22T22:07:01.811Z,70.78
2023-02-22T22:09:33.599Z,57.00
2023-02-22T22:12:05.547Z,50.28
2023-02-22T22:14:38.113Z,75.00
2023-02-22T22:17:11.292Z,63.97
2023-02-22T22:19:43.272Z,71.00
2023-02-22T22:22:14.697Z,65.05
2023-02-22T22:24:46.123Z,67.25
2023-02-22T22:27:17.560Z,74.45
2023-02-22T22:29:48.993Z,60.55
2023-02-22T22:32:20.415Z,53.40
2023-02-22T22:34:51.873Z,57.00
2023-02-22T22:37:23.306Z,57.83
2023-02-22T22:39:55.281Z,57.10
2023-02-22T22:42:26.696Z,55.35
2023-02-22T22:44:58.148Z,71.70
2023-02-22T22:47:29.603Z,57.33
2023-02-22T22:50:00.991Z,54.47
2023-02-22T22:52:34.207Z,81.05
2023-02-22T22:55:06.853Z,70.97
2023-02-22T22:57:41.997Z,60.33
2023-02-22T23:00:15.393Z,58.10
2023-02-22T23:02:46.857Z,56.80
2023-02-22T23:05:18.318Z,51.92
2023-02-22T23:07:49.730Z,48.83
2023-02-22T23:10:21.188Z,51.35
2023-02-22T23:12:55.691Z,47.25
2023-02-22T23:15:27.171Z,55.47
2023-02-22T23:17:58.672Z,52.35
2023-02-22T23:20:30.216Z,55.72
2023-02-22T23:23:01.648Z,51.60
2023-02-22T23:25:33.743Z,52.00
2023-02-22T23:28:05.263Z,71.05
2023-02-22T23:30:37.952Z,51.72
2023-02-22T23:33:09.994Z,72.22
2023-02-22T23:35:47.747Z,65.63
2023-02-22T23:38:19.155Z,56.38
2023-02-22T23:40:50.614Z,60.25
2023-02-22T23:43:22.015Z,53.10
2023-02-22T23:45:53.480Z,50.72
2023-02-22T23:48:24.909Z,56.20
2023-02-22T23:50:56.625Z,54.10
2023-02-22T23:53:28.068Z,49.17
2023-02-22T23:56:00.016Z,60.13
2023-02-22T23:58:31.412Z,63.40
